KRVS/RVS METAR and TAF weather

Enter ICAO airport designator
Station Type Date Time Source
KRVS METAR 2019/08/24 17:53 UTC NOAA

KRVS 241753Z 15007KT 10SM BKN017 28/23 A2997 RMK AO2 SLP153 T02830228 10283 20222 58005


Station Type Date Time Source
KRVS Decoded METAR 2019/08/24 17:53 UTC NOAA

Station name not available
Aug 24, 2019 - 01:53 PM EDT / 2019.08.24 1753 UTC
Wind: from the SSE (150 degrees) at 8 MPH (7 KT):0
Visibility: 10 mile(s):0
Sky conditions: mostly cloudy
Temperature: 82.9 F (28.3 C)
Dew Point: 73.0 F (22.8 C)
Relative Humidity: 72%
Pressure (altimeter): 29.97 in. Hg (1014 hPa)
Pressure tendency: 0.01 inches (0.5 hPa) lower than three hours ago
ob: KRVS 241753Z 15007KT 10SM BKN017 28/23 A2997 RMK AO2 SLP153 T02830228 10283 20222 58005
cycle: 18

Station Type Date Time Source
KRVS TAF 2019/08/24 18:22 UTC NOAA

TAF KRVS 241720Z 2418/2518 14004KT P6SM VCSH OVC012
FM242100 13007KT P6SM VCSH BKN030
FM250800 15005KT P6SM VCTS BKN025CB
TEMPO 2511/2515 3SM -TSRA BKN012CB

Example: see airport list